createdAt,value
2019-02-14T00:01:45.988Z,4.30
2019-02-14T00:05:58.887Z,4.30
2019-02-14T00:10:11.454Z,4.20
2019-02-14T00:14:23.945Z,4.10
2019-02-14T00:18:36.647Z,4.10
2019-02-14T00:22:49.000Z,4.10
2019-02-14T00:27:01.418Z,4.10
2019-02-14T00:31:14.315Z,4.10
2019-02-14T00:35:26.833Z,4.10
2019-02-14T00:39:39.653Z,4.00
2019-02-14T00:43:52.212Z,3.90
2019-02-14T00:48:04.685Z,3.90
2019-02-14T00:52:17.408Z,3.90
2019-02-14T00:56:29.872Z,4.00
2019-02-14T01:00:43.404Z,4.00
2019-02-14T01:04:55.926Z,4.00
2019-02-14T01:09:09.568Z,4.00
2019-02-14T01:13:22.653Z,3.80
2019-02-14T01:17:35.007Z,3.80
2019-02-14T01:21:48.356Z,3.80
2019-02-14T01:26:00.664Z,3.80
2019-02-14T01:30:13.549Z,3.90
2019-02-14T01:34:26.213Z,3.80
2019-02-14T01:38:38.689Z,3.60
2019-02-14T01:42:51.411Z,3.60
2019-02-14T01:47:03.870Z,3.60
2019-02-14T01:51:16.820Z,3.60
2019-02-14T01:55:29.428Z,3.60
2019-02-14T01:59:41.935Z,3.70
2019-02-14T02:03:54.723Z,3.50
2019-02-14T02:08:08.926Z,3.40
2019-02-14T02:12:21.017Z,3.40
2019-02-14T02:16:33.437Z,3.40
2019-02-14T02:20:46.309Z,3.40
2019-02-14T02:24:58.681Z,3.50
2019-02-14T02:29:10.996Z,3.40
2019-02-14T02:33:23.428Z,3.30
2019-02-14T02:37:36.258Z,3.20
2019-02-14T02:41:48.753Z,3.30
2019-02-14T02:46:01.169Z,3.40
2019-02-14T02:50:14.510Z,3.40
2019-02-14T02:54:26.985Z,3.50
2019-02-14T02:58:39.754Z,3.50
2019-02-14T03:02:52.274Z,3.50
2019-02-14T03:07:04.676Z,3.50
2019-02-14T03:11:17.470Z,3.60
2019-02-14T03:15:30.028Z,3.60
2019-02-14T03:19:43.012Z,3.60
2019-02-14T03:23:55.659Z,3.50
2019-02-14T03:28:07.988Z,3.50
2019-02-14T03:32:20.768Z,3.50
2019-02-14T03:36:33.356Z,3.60
2019-02-14T03:40:46.385Z,3.50
2019-02-14T03:44:58.877Z,3.50
2019-02-14T03:49:11.192Z,3.40
2019-02-14T03:53:23.505Z,3.40
2019-02-14T03:57:36.356Z,3.40
2019-02-14T04:01:48.865Z,3.50
2019-02-14T04:06:01.157Z,3.50
2019-02-14T04:10:14.512Z,3.40
2019-02-14T04:14:26.912Z,3.40
2019-02-14T04:18:39.801Z,3.40
2019-02-14T04:22:52.267Z,3.50
2019-02-14T04:27:04.769Z,3.50
2019-02-14T04:31:17.563Z,3.50
2019-02-14T04:35:30.224Z,3.40
2019-02-14T04:39:43.282Z,3.30
2019-02-14T04:43:55.873Z,3.30
2019-02-14T04:48:08.180Z,3.30
2019-02-14T04:52:21.074Z,3.40
2019-02-14T04:56:33.536Z,3.40
2019-02-14T05:00:46.003Z,3.30
2019-02-14T05:04:58.728Z,3.20
2019-02-14T05:09:12.420Z,3.20
2019-02-14T05:13:25.036Z,3.30
2019-02-14T05:17:37.453Z,3.30
2019-02-14T05:21:50.232Z,3.30
2019-02-14T05:26:02.800Z,3.10
2019-02-14T05:30:15.508Z,3.00
2019-02-14T05:34:28.387Z,3.00
2019-02-14T05:38:40.833Z,3.00
2019-02-14T05:42:53.650Z,3.00
2019-02-14T05:47:06.105Z,3.00
2019-02-14T05:51:19.743Z,3.00
2019-02-14T05:55:32.152Z,2.90
2019-02-14T05:59:45.048Z,2.90
2019-02-14T06:03:57.575Z,2.80
2019-02-14T06:08:09.813Z,2.80
2019-02-14T06:12:22.702Z,2.80
2019-02-14T06:16:35.161Z,2.70
2019-02-14T06:20:48.149Z,2.70
2019-02-14T06:25:00.716Z,2.70
2019-02-14T06:29:13.695Z,2.70
2019-02-14T06:33:26.432Z,2.70
2019-02-14T06:37:39.349Z,2.70
2019-02-14T06:41:51.873Z,2.60
2019-02-14T06:46:04.221Z,2.60
2019-02-14T06:50:17.003Z,2.60
2019-02-14T06:54:29.470Z,2.60
2019-02-14T06:58:41.876Z,2.60
2019-02-14T07:02:54.659Z,2.60
2019-02-14T07:07:07.181Z,2.50
2019-02-14T07:11:20.004Z,2.50
2019-02-14T07:15:32.565Z,2.40
2019-02-14T07:19:45.552Z,2.20
2019-02-14T07:23:58.112Z,2.20
2019-02-14T07:28:10.525Z,2.30
2019-02-14T07:32:23.411Z,2.30
2019-02-14T07:36:36.394Z,2.30
2019-02-14T07:40:49.211Z,2.20
2019-02-14T07:45:01.720Z,2.20
2019-02-14T07:49:14.613Z,2.20
2019-02-14T07:53:27.186Z,2.40
2019-02-14T07:57:39.586Z,2.50
2019-02-14T08:01:52.479Z,2.60
2019-02-14T08:06:04.937Z,2.60
2019-02-14T08:10:18.641Z,2.80
2019-02-14T08:14:30.881Z,3.20
2019-02-14T08:18:43.673Z,3.60
2019-02-14T08:22:56.133Z,3.80
2019-02-14T08:27:08.441Z,4.00
2019-02-14T08:31:20.747Z,3.90
2019-02-14T08:35:33.740Z,4.10
2019-02-14T08:39:46.543Z,4.30
2019-02-14T08:43:59.293Z,4.50
2019-02-14T08:48:11.751Z,4.70
2019-02-14T08:52:24.165Z,4.80
2019-02-14T08:56:36.577Z,4.80
2019-02-14T09:00:49.411Z,5.00
2019-02-14T09:05:01.932Z,5.30
2019-02-14T09:09:15.475Z,5.40
2019-02-14T09:13:27.949Z,5.60
2019-02-14T09:17:40.764Z,5.70
2019-02-14T09:21:53.226Z,5.70
2019-02-14T09:26:05.532Z,5.90
2019-02-14T09:30:18.433Z,6.10
2019-02-14T09:34:30.987Z,6.20
2019-02-14T09:38:43.504Z,6.40
2019-02-14T09:42:56.372Z,6.50
2019-02-14T09:47:08.862Z,6.70
2019-02-14T09:51:21.840Z,7.00
2019-02-14T09:55:34.401Z,7.20
2019-02-14T09:59:46.908Z,7.50
2019-02-14T10:03:59.822Z,7.70
2019-02-14T10:08:13.125Z,8.00
2019-02-14T10:12:25.802Z,8.20
2019-02-14T10:16:38.339Z,8.40
2019-02-14T10:20:51.001Z,8.70
2019-02-14T10:25:03.456Z,9.00
2019-02-14T10:29:16.446Z,9.30
2019-02-14T10:33:29.004Z,9.60
2019-02-14T10:37:41.540Z,9.90
2019-02-14T10:41:54.300Z,10.10
2019-02-14T10:46:06.838Z,10.10
2019-02-14T10:50:19.747Z,10.40
2019-02-14T10:54:32.203Z,10.50
2019-02-14T10:58:44.617Z,10.50
2019-02-14T11:02:57.516Z,10.60
2019-02-14T11:07:09.970Z,10.80
2019-02-14T11:11:22.853Z,11.10
2019-02-14T11:15:35.608Z,11.10
2019-02-14T11:19:48.509Z,10.90
2019-02-14T11:24:01.065Z,10.80
2019-02-14T11:28:13.483Z,10.90
2019-02-14T11:32:26.361Z,10.90
2019-02-14T11:36:38.824Z,10.80
2019-02-14T11:40:51.233Z,10.80
2019-02-14T11:45:04.116Z,11.00
2019-02-14T11:49:16.127Z,11.00
2019-02-14T11:53:29.408Z,10.90
2019-02-14T11:57:42.016Z,10.90
2019-02-14T12:01:55.562Z,11.00
2019-02-14T12:06:07.980Z,11.10
2019-02-14T12:10:20.876Z,11.00
2019-02-14T12:14:33.428Z,11.00
2019-02-14T12:18:46.021Z,11.10
2019-02-14T12:22:58.742Z,11.00
2019-02-14T12:27:11.192Z,10.90
2019-02-14T12:31:24.069Z,11.00
2019-02-14T12:35:36.637Z,11.00
2019-02-14T12:39:49.683Z,11.10
2019-02-14T12:44:02.455Z,11.30
2019-02-14T12:48:14.813Z,11.50
2019-02-14T12:52:27.648Z,11.50
2019-02-14T12:56:40.148Z,11.40
2019-02-14T13:00:53.137Z,11.50
2019-02-14T13:05:05.795Z,11.30
2019-02-14T13:09:19.958Z,11.20
2019-02-14T13:13:32.977Z,11.30
2019-02-14T13:17:45.292Z,11.40
2019-02-14T13:21:58.248Z,11.30
2019-02-14T13:26:10.743Z,11.20
2019-02-14T13:30:23.949Z,11.00
2019-02-14T13:34:36.397Z,10.90
2019-02-14T13:38:48.901Z,10.90
2019-02-14T13:43:01.651Z,10.80
2019-02-14T13:47:14.148Z,10.80
2019-02-14T13:51:27.141Z,10.90
2019-02-14T13:55:39.758Z,10.90
2019-02-14T13:59:52.784Z,11.00
2019-02-14T14:04:05.272Z,11.10
2019-02-14T14:08:17.660Z,11.30
2019-02-14T14:12:30.439Z,11.50
2019-02-14T14:16:42.801Z,11.50
2019-02-14T14:20:55.781Z,11.40
2019-02-14T14:25:08.448Z,11.40
2019-02-14T14:29:21.432Z,11.60
2019-02-14T14:33:33.989Z,11.50
2019-02-14T14:37:46.413Z,11.40
2019-02-14T14:41:59.397Z,11.20
2019-02-14T14:46:22.221Z,11.30
2019-02-14T14:50:34.716Z,11.30
2019-02-14T14:54:47.030Z,11.10
2019-02-14T14:58:59.876Z,11.10
2019-02-14T15:03:12.480Z,10.90
2019-02-14T15:07:24.885Z,10.90
2019-02-14T15:11:37.682Z,10.90
2019-02-14T15:15:50.136Z,10.90
2019-02-14T15:20:05.168Z,11.10
2019-02-14T15:24:19.654Z,10.90
2019-02-14T15:28:34.912Z,10.70
2019-02-14T15:32:49.393Z,10.70
2019-02-14T15:37:04.579Z,10.60
2019-02-14T15:41:19.185Z,10.50
2019-02-14T15:45:34.132Z,10.40
2019-02-14T15:49:49.632Z,10.40
2019-02-14T15:54:04.877Z,10.40
2019-02-14T15:58:20.281Z,10.50
2019-02-14T16:02:36.337Z,10.50
2019-02-14T16:06:50.538Z,10.40
2019-02-14T16:11:03.891Z,10.30
2019-02-14T16:15:16.346Z,10.20
2019-02-14T16:19:29.307Z,10.20
2019-02-14T16:23:41.672Z,10.20
2019-02-14T16:27:54.054Z,10.20
2019-02-14T16:32:07.604Z,10.20
2019-02-14T16:36:20.694Z,10.10
2019-02-14T16:40:38.636Z,10.00
2019-02-14T16:44:48.428Z,9.90
2019-02-14T16:49:00.747Z,9.90
2019-02-14T16:53:13.191Z,9.80
2019-02-14T16:57:25.947Z,9.80
2019-02-14T17:01:39.633Z,9.70
2019-02-14T17:05:52.104Z,9.70
2019-02-14T17:10:05.140Z,9.60
2019-02-14T17:14:17.592Z,9.60
2019-02-14T17:18:30.008Z,9.50
2019-02-14T17:22:42.903Z,9.50
2019-02-14T17:26:55.358Z,9.40
2019-02-14T17:31:08.344Z,9.40
2019-02-14T17:35:20.984Z,9.30
2019-02-14T17:39:34.445Z,9.30
2019-02-14T17:43:46.860Z,9.20
2019-02-14T17:47:59.743Z,9.20
2019-02-14T17:52:13.045Z,9.10
2019-02-14T17:56:26.375Z,9.10
2019-02-14T18:00:40.712Z,9.10
2019-02-14T18:04:53.037Z,9.10
2019-02-14T18:09:07.037Z,9.10
2019-02-14T18:13:19.872Z,9.10
2019-02-14T18:17:32.341Z,9.10
2019-02-14T18:21:45.320Z,9.10
2019-02-14T18:25:57.732Z,9.10
2019-02-14T18:30:10.754Z,9.10
2019-02-14T18:34:23.328Z,9.10
2019-02-14T18:38:35.821Z,9.10
2019-02-14T18:42:48.742Z,9.10
2019-02-14T18:47:01.175Z,9.10
2019-02-14T18:51:14.069Z,9.10
2019-02-14T18:55:26.630Z,9.00
2019-02-14T18:59:39.613Z,9.00
2019-02-14T19:03:52.180Z,8.90
2019-02-14T19:08:04.480Z,8.80
2019-02-14T19:12:17.604Z,8.80
2019-02-14T19:16:30.039Z,8.80
2019-02-14T19:20:43.498Z,8.80
2019-02-14T19:24:56.252Z,8.80
2019-02-14T19:29:08.885Z,8.80
2019-02-14T19:33:21.247Z,8.80
2019-02-14T19:37:33.649Z,8.70
2019-02-14T19:41:46.132Z,8.60
2019-02-14T19:45:59.011Z,8.60
2019-02-14T19:50:11.832Z,8.50
2019-02-14T19:54:24.507Z,8.50
2019-02-14T19:58:36.960Z,8.30
2019-02-14T20:02:50.401Z,8.20
2019-02-14T20:07:02.813Z,8.10
2019-02-14T20:11:15.799Z,8.20
2019-02-14T20:15:36.719Z,8.30
2019-02-14T20:19:43.339Z,8.40
2019-02-14T20:23:56.331Z,8.40
2019-02-14T20:28:08.900Z,8.40
2019-02-14T20:32:21.289Z,8.40
2019-02-14T20:36:34.082Z,8.20
2019-02-14T20:40:46.801Z,8.20
2019-02-14T20:44:59.225Z,8.00
2019-02-14T20:49:11.983Z,7.80
2019-02-14T20:53:24.412Z,7.90
2019-02-14T20:57:37.237Z,8.10
2019-02-14T21:01:49.953Z,8.00
2019-02-14T21:06:02.365Z,7.90
2019-02-14T21:10:15.256Z,7.70
2019-02-14T21:14:27.772Z,7.50
2019-02-14T21:18:40.130Z,7.40
2019-02-14T21:22:52.914Z,7.40
2019-02-14T21:27:05.377Z,7.30
2019-02-14T21:31:18.362Z,7.20
2019-02-14T21:35:30.928Z,7.10
2019-02-14T21:39:43.900Z,7.00
2019-02-14T21:43:56.735Z,7.00
2019-02-14T21:48:09.918Z,7.00
2019-02-14T21:52:22.319Z,7.00
2019-02-14T21:56:34.832Z,7.00
2019-02-14T22:00:48.209Z,7.00
2019-02-14T22:05:01.073Z,7.00
2019-02-14T22:09:13.833Z,7.00
2019-02-14T22:13:27.097Z,7.00
2019-02-14T22:17:39.724Z,7.00
2019-02-14T22:21:52.524Z,7.00
2019-02-14T22:26:05.025Z,6.90
2019-02-14T22:30:18.209Z,6.90
2019-02-14T22:34:30.669Z,6.80
2019-02-14T22:38:43.857Z,6.80
2019-02-14T22:42:56.223Z,6.70
2019-02-14T22:47:09.626Z,6.60
2019-02-14T22:51:21.972Z,6.50
2019-02-14T22:55:34.384Z,6.60
2019-02-14T22:59:47.188Z,6.60
2019-02-14T23:03:59.824Z,6.50
2019-02-14T23:08:12.175Z,6.50
2019-02-14T23:12:25.027Z,6.50
2019-02-14T23:16:37.492Z,6.40
2019-02-14T23:20:50.069Z,6.30
2019-02-14T23:25:03.440Z,6.40
2019-02-14T23:29:16.337Z,6.30
2019-02-14T23:33:28.792Z,6.30
2019-02-14T23:37:41.217Z,6.40
2019-02-14T23:41:54.141Z,6.40
2019-02-14T23:46:06.792Z,6.40
2019-02-14T23:50:20.392Z,6.20
2019-02-14T23:54:32.717Z,6.20
2019-02-14T23:58:45.601Z,6.20
